createdAt,value
2019-02-14T00:00:17.392Z,23.46
2019-02-14T00:02:10.986Z,23.46
2019-02-14T00:03:10.964Z,23.40
2019-02-14T00:05:04.299Z,23.40
2019-02-14T00:06:04.099Z,23.46
2019-02-14T00:07:57.693Z,23.45
2019-02-14T00:08:57.686Z,23.49
2019-02-14T00:10:50.989Z,23.45
2019-02-14T00:11:50.780Z,23.42
2019-02-14T00:13:44.358Z,23.45
2019-02-14T00:14:44.341Z,23.42
2019-02-14T00:16:37.675Z,23.46
2019-02-14T00:17:37.491Z,23.45
2019-02-14T00:19:30.849Z,23.53
2019-02-14T00:20:31.090Z,23.55
2019-02-14T00:22:24.411Z,23.52
2019-02-14T00:23:24.181Z,23.52
2019-02-14T00:25:17.806Z,23.53
2019-02-14T00:26:17.525Z,23.55
2019-02-14T00:28:11.216Z,23.49
2019-02-14T00:29:10.890Z,23.46
2019-02-14T00:31:04.244Z,23.52
2019-02-14T00:32:04.479Z,23.58
2019-02-14T00:33:57.926Z,23.55
2019-02-14T00:34:57.665Z,23.53
2019-02-14T00:36:52.131Z,23.52
2019-02-14T00:37:52.145Z,23.52
2019-02-14T00:39:45.736Z,23.53
2019-02-14T00:40:45.470Z,23.60
2019-02-14T00:42:38.585Z,23.58
2019-02-14T00:43:38.807Z,23.52
2019-02-14T00:45:32.328Z,23.58
2019-02-14T00:46:32.167Z,23.53
2019-02-14T00:48:25.280Z,23.50
2019-02-14T00:49:25.524Z,23.52
2019-02-14T00:51:18.955Z,23.47
2019-02-14T00:52:18.650Z,23.47
2019-02-14T00:54:11.992Z,23.46
2019-02-14T00:55:12.172Z,23.45
2019-02-14T00:57:05.792Z,23.43
2019-02-14T00:59:58.738Z,23.46
2019-02-14T01:00:58.686Z,23.45
2019-02-14T01:02:52.602Z,23.45
2019-02-14T01:03:52.257Z,23.46
2019-02-14T01:05:45.710Z,23.52
2019-02-14T01:06:45.412Z,23.43
2019-02-14T01:08:39.245Z,23.52
2019-02-14T01:09:39.073Z,23.55
2019-02-14T01:11:32.163Z,23.50
2019-02-14T01:12:32.338Z,23.52
2019-02-14T01:14:25.677Z,23.62
2019-02-14T01:15:25.721Z,23.53
2019-02-14T01:17:19.083Z,23.62
2019-02-14T01:18:18.826Z,23.62
2019-02-14T01:20:12.484Z,23.58
2019-02-14T01:21:12.431Z,23.58
2019-02-14T01:23:05.766Z,23.55
2019-02-14T01:24:05.542Z,23.53
2019-02-14T01:25:59.400Z,23.53
2019-02-14T01:26:58.851Z,23.53
2019-02-14T01:28:52.497Z,23.65
2019-02-14T01:29:52.199Z,23.67
2019-02-14T01:31:46.007Z,23.58
2019-02-14T01:32:45.541Z,23.47
2019-02-14T01:34:38.934Z,23.53
2019-02-14T01:35:41.995Z,23.52
2019-02-14T01:37:32.507Z,23.58
2019-02-14T01:38:32.265Z,23.64
2019-02-14T01:40:25.969Z,23.58
2019-02-14T01:41:25.811Z,23.53
2019-02-14T01:43:19.165Z,23.58
2019-02-14T01:44:19.215Z,23.64
2019-02-14T01:46:12.552Z,23.61
2019-02-14T01:47:12.529Z,23.60
2019-02-14T01:49:06.196Z,23.61
2019-02-14T01:50:05.851Z,23.65
2019-02-14T01:51:58.984Z,23.70
2019-02-14T01:52:58.973Z,23.67
2019-02-14T01:54:52.800Z,23.62
2019-02-14T01:55:52.566Z,23.68
2019-02-14T01:57:45.701Z,23.67
2019-02-14T01:58:45.961Z,23.65
2019-02-14T02:00:39.231Z,23.71
2019-02-14T02:01:39.007Z,23.70
2019-02-14T02:03:32.652Z,23.65
2019-02-14T02:04:32.631Z,23.68
2019-02-14T02:06:26.068Z,23.58
2019-02-14T02:07:27.314Z,23.61
2019-02-14T02:09:19.419Z,23.62
2019-02-14T02:10:19.106Z,23.60
2019-02-14T02:12:12.893Z,23.61
2019-02-14T02:13:12.695Z,23.61
2019-02-14T02:15:06.021Z,23.61
2019-02-14T02:16:05.993Z,23.61
2019-02-14T02:17:59.671Z,23.64
2019-02-14T02:18:59.351Z,23.67
2019-02-14T02:20:52.533Z,23.57
2019-02-14T02:21:52.533Z,23.67
2019-02-14T02:25:18.115Z,23.61
2019-02-14T02:26:18.132Z,23.55
2019-02-14T02:28:11.270Z,23.65
2019-02-14T02:29:11.259Z,23.68
2019-02-14T02:31:04.919Z,23.68
2019-02-14T02:32:04.870Z,23.65
2019-02-14T02:33:58.205Z,23.71
2019-02-14T02:34:58.256Z,23.67
2019-02-14T02:36:51.526Z,23.65
2019-02-14T02:37:51.557Z,23.64
2019-02-14T02:39:45.425Z,23.65
2019-02-14T02:40:45.672Z,23.72
2019-02-14T02:42:39.263Z,23.68
2019-02-14T02:43:38.989Z,23.70
2019-02-14T02:45:32.335Z,23.67
2019-02-14T02:46:32.345Z,23.67
2019-02-14T02:48:25.974Z,23.68
2019-02-14T02:49:25.485Z,23.62
2019-02-14T02:51:18.881Z,23.68
2019-02-14T02:52:19.099Z,23.68
2019-02-14T02:54:12.493Z,23.79
2019-02-14T02:55:12.464Z,23.82
2019-02-14T02:57:05.834Z,23.86
2019-02-14T02:58:05.530Z,23.87
2019-02-14T02:59:58.698Z,23.85
2019-02-14T03:00:58.407Z,23.86
2019-02-14T03:02:51.779Z,23.86
2019-02-14T03:03:51.777Z,23.86
2019-02-14T03:05:45.951Z,23.85
2019-02-14T03:06:45.321Z,23.87
2019-02-14T03:08:38.666Z,23.85
2019-02-14T03:09:38.424Z,23.85
2019-02-14T03:11:53.188Z,23.85
2019-02-14T03:12:31.772Z,23.86
2019-02-14T03:14:25.147Z,23.92
2019-02-14T03:15:25.378Z,23.89
2019-02-14T03:17:18.907Z,24.01
2019-02-14T03:18:18.510Z,24.01
2019-02-14T03:20:12.708Z,24.08
2019-02-14T03:21:12.133Z,24.07
2019-02-14T03:23:05.829Z,23.95
2019-02-14T03:25:58.831Z,23.90
2019-02-14T03:26:58.626Z,23.92
2019-02-14T03:28:51.222Z,23.92
2019-02-14T03:29:50.952Z,23.92
2019-02-14T03:33:15.675Z,23.87
2019-02-14T03:34:15.449Z,23.94
2019-02-14T03:36:08.975Z,23.89
2019-02-14T03:37:08.963Z,23.82
2019-02-14T03:39:02.162Z,23.83
2019-02-14T03:40:02.344Z,23.80
2019-02-14T03:41:55.921Z,23.80
2019-02-14T03:42:55.504Z,23.79
2019-02-14T03:44:49.241Z,23.79
2019-02-14T03:45:48.899Z,23.79
2019-02-14T03:47:42.698Z,23.76
2019-02-14T03:48:42.218Z,23.75
2019-02-14T03:50:35.709Z,23.83
2019-02-14T03:53:29.442Z,23.85
2019-02-14T03:54:28.924Z,23.86
2019-02-14T03:56:43.287Z,23.82
2019-02-14T03:57:22.561Z,23.89
2019-02-14T03:59:15.949Z,23.92
2019-02-14T04:00:15.636Z,23.92
2019-02-14T04:02:09.249Z,23.95
2019-02-14T04:03:09.260Z,23.95
2019-02-14T04:05:02.858Z,23.97
2019-02-14T04:06:02.340Z,24.04
2019-02-14T04:07:55.703Z,24.05
2019-02-14T04:08:55.687Z,23.94
2019-02-14T04:10:49.477Z,23.90
2019-02-14T04:11:49.270Z,23.86
2019-02-14T04:13:42.153Z,23.86
2019-02-14T04:14:42.123Z,23.79
2019-02-14T04:16:35.429Z,23.68
2019-02-14T04:17:35.277Z,23.62
2019-02-14T04:19:28.831Z,23.58
2019-02-14T04:20:28.605Z,23.55
2019-02-14T04:22:22.163Z,23.62
2019-02-14T04:23:22.208Z,23.52
2019-02-14T04:25:14.859Z,23.53
2019-02-14T04:26:14.863Z,23.50
2019-02-14T04:28:08.401Z,23.55
2019-02-14T04:29:08.170Z,23.57
2019-02-14T04:31:01.747Z,23.57
2019-02-14T04:32:01.771Z,23.57
2019-02-14T04:35:27.425Z,23.60
2019-02-14T04:36:35.427Z,23.53
2019-02-14T04:38:20.494Z,23.57
2019-02-14T04:41:14.933Z,23.64
2019-02-14T04:42:15.145Z,23.53
2019-02-14T04:45:08.056Z,23.55
2019-02-14T04:47:03.546Z,23.53
2019-02-14T04:48:02.490Z,23.55
2019-02-14T04:50:03.687Z,23.55
2019-02-14T04:50:55.962Z,23.46
2019-02-14T04:52:49.576Z,23.57
2019-02-14T04:53:49.484Z,23.55
2019-02-14T04:55:42.838Z,23.52
2019-02-14T04:56:42.613Z,23.52
2019-02-14T04:58:36.218Z,23.61
2019-02-14T04:59:36.005Z,23.57
2019-02-14T05:01:29.311Z,23.60
2019-02-14T05:02:29.333Z,23.61
2019-02-14T05:04:23.135Z,23.61
2019-02-14T05:05:22.988Z,23.62
2019-02-14T05:07:16.139Z,23.62
2019-02-14T05:08:16.580Z,23.57
2019-02-14T05:10:09.555Z,23.58
2019-02-14T05:11:09.369Z,23.57
2019-02-14T05:13:03.058Z,23.60
2019-02-14T05:14:02.729Z,23.62
2019-02-14T05:15:56.482Z,23.52
2019-02-14T05:16:56.083Z,23.57
2019-02-14T05:18:49.439Z,23.61
2019-02-14T05:19:49.422Z,23.47
2019-02-14T05:21:43.032Z,23.60
2019-02-14T05:22:43.019Z,23.61
2019-02-14T05:24:36.989Z,23.64
2019-02-14T05:25:36.610Z,23.53
2019-02-14T05:27:30.279Z,23.62
2019-02-14T05:28:29.647Z,23.58
2019-02-14T05:30:23.965Z,23.57
2019-02-14T05:31:22.997Z,23.60
2019-02-14T05:33:16.744Z,23.65
2019-02-14T05:34:16.336Z,23.58
2019-02-14T05:36:09.742Z,23.57
2019-02-14T05:37:09.687Z,23.61
2019-02-14T05:39:42.348Z,23.68
2019-02-14T05:40:03.023Z,23.60
2019-02-14T05:41:56.428Z,23.72
2019-02-14T05:42:56.589Z,23.68
2019-02-14T05:44:50.171Z,23.68
2019-02-14T05:45:49.995Z,23.67
2019-02-14T05:47:43.318Z,23.65
2019-02-14T05:48:43.342Z,23.65
2019-02-14T05:50:36.863Z,23.70
2019-02-14T05:51:36.607Z,23.71
2019-02-14T05:53:29.852Z,23.70
2019-02-14T05:56:23.285Z,23.67
2019-02-14T05:57:23.367Z,23.71
2019-02-14T05:59:16.459Z,23.71
2019-02-14T06:00:16.478Z,23.71
2019-02-14T06:02:10.398Z,23.79
2019-02-14T06:03:09.789Z,23.76
2019-02-14T06:05:03.403Z,23.79
2019-02-14T06:06:03.139Z,23.79
2019-02-14T06:07:57.076Z,23.83
2019-02-14T06:08:56.582Z,23.75
2019-02-14T06:10:50.193Z,23.79
2019-02-14T06:11:50.492Z,23.79
2019-02-14T06:13:45.615Z,23.85
2019-02-14T06:14:43.302Z,23.82
2019-02-14T06:16:35.083Z,23.77
2019-02-14T06:17:34.907Z,23.82
2019-02-14T06:19:27.491Z,23.79
2019-02-14T06:20:27.424Z,23.77
2019-02-14T06:23:19.541Z,23.83
2019-02-14T06:25:12.695Z,23.85
2019-02-14T06:26:12.201Z,23.83
2019-02-14T06:28:05.156Z,23.87
2019-02-14T06:29:04.958Z,23.79
2019-02-14T06:30:57.510Z,23.83
2019-02-14T06:32:57.204Z,23.85
2019-02-14T06:33:57.196Z,23.71
2019-02-14T06:34:56.933Z,23.75
2019-02-14T06:35:57.136Z,23.76
2019-02-14T06:36:56.929Z,23.71
2019-02-14T06:37:56.944Z,23.75
2019-02-14T06:38:57.136Z,23.71
2019-02-14T06:39:57.194Z,23.68
2019-02-14T06:40:57.124Z,23.67
2019-02-14T06:41:57.097Z,23.70
2019-02-14T06:42:57.085Z,23.65
2019-02-14T06:43:57.081Z,23.67
2019-02-14T06:44:56.861Z,23.64
2019-02-14T06:47:30.063Z,23.68
2019-02-14T06:48:29.814Z,23.64
2019-02-14T06:50:22.893Z,23.68
2019-02-14T06:51:23.105Z,23.65
2019-02-14T06:53:16.499Z,23.55
2019-02-14T06:54:16.487Z,23.64
2019-02-14T06:56:09.795Z,23.53
2019-02-14T06:57:09.830Z,23.57
2019-02-14T06:59:03.208Z,23.57
2019-02-14T07:00:02.929Z,23.67
2019-02-14T07:01:56.473Z,23.60
2019-02-14T07:02:56.340Z,23.58
2019-02-14T07:04:49.825Z,23.58
2019-02-14T07:05:49.844Z,23.64
2019-02-14T07:07:42.554Z,23.62
2019-02-14T07:08:42.761Z,23.62
2019-02-14T07:10:36.317Z,23.61
2019-02-14T07:11:36.109Z,23.61
2019-02-14T07:13:28.705Z,23.61
2019-02-14T07:14:28.705Z,23.52
2019-02-14T07:16:23.186Z,23.61
2019-02-14T07:17:22.036Z,23.57
2019-02-14T07:18:22.081Z,23.53
2019-02-14T07:19:22.009Z,23.61
2019-02-14T07:20:22.269Z,23.67
2019-02-14T07:21:21.999Z,23.67
2019-02-14T07:22:22.246Z,23.64
2019-02-14T07:23:22.290Z,23.58
2019-02-14T07:24:22.221Z,23.62
2019-02-14T07:25:21.989Z,23.62
2019-02-14T07:26:22.246Z,23.58
2019-02-14T07:27:22.239Z,23.43
2019-02-14T07:28:22.203Z,23.43
2019-02-14T07:29:22.186Z,23.38
2019-02-14T07:30:21.925Z,23.38
2019-02-14T07:31:22.145Z,23.24
2019-02-14T07:32:22.135Z,23.26
2019-02-14T07:33:22.173Z,23.26
2019-02-14T07:34:21.892Z,23.20
2019-02-14T07:35:21.919Z,23.17
2019-02-14T07:36:21.922Z,23.11
2019-02-14T07:37:26.769Z,23.04
2019-02-14T07:38:21.893Z,23.14
2019-02-14T07:39:21.855Z,23.14
2019-02-14T07:40:21.888Z,23.09
2019-02-14T07:41:21.874Z,23.12
2019-02-14T07:42:21.826Z,23.08
2019-02-14T07:43:21.864Z,23.08
2019-02-14T07:44:21.812Z,23.11
2019-02-14T07:45:21.806Z,23.12
2019-02-14T07:46:22.969Z,23.04
2019-02-14T07:47:22.022Z,23.07
2019-02-14T07:48:22.212Z,23.07
2019-02-14T07:49:22.037Z,23.08
2019-02-14T07:50:22.000Z,23.07
2019-02-14T07:51:21.748Z,23.07
2019-02-14T07:52:25.178Z,23.08
2019-02-14T07:53:21.763Z,23.12
2019-02-14T07:54:21.997Z,23.09
2019-02-14T07:55:21.723Z,23.05
2019-02-14T07:56:21.958Z,23.22
2019-02-14T07:57:21.937Z,23.22
2019-02-14T07:58:21.942Z,23.15
2019-02-14T07:59:21.911Z,23.22
2019-02-14T08:00:21.947Z,23.26
2019-02-14T08:01:21.902Z,23.31
2019-02-14T08:02:21.890Z,23.29
2019-02-14T08:03:21.911Z,23.32
2019-02-14T08:04:21.650Z,23.27
2019-02-14T08:05:21.911Z,23.32
2019-02-14T08:06:21.878Z,23.35
2019-02-14T08:07:21.851Z,23.29
2019-02-14T08:08:21.864Z,23.38
2019-02-14T08:09:21.634Z,23.27
2019-02-14T08:10:21.836Z,23.31
2019-02-14T08:11:21.583Z,23.27
2019-02-14T08:12:21.838Z,23.29
2019-02-14T08:13:21.584Z,23.27
2019-02-14T08:14:21.798Z,23.29
2019-02-14T08:15:21.575Z,23.34
2019-02-14T08:16:21.585Z,23.31
2019-02-14T08:17:21.577Z,23.31
2019-02-14T08:18:21.897Z,23.31
2019-02-14T08:19:21.558Z,23.29
2019-02-14T08:20:21.546Z,23.32
2019-02-14T08:21:21.776Z,23.29
2019-02-14T08:22:21.743Z,23.34
2019-02-14T08:23:21.797Z,23.32
2019-02-14T08:24:21.733Z,23.27
2019-02-14T08:25:21.478Z,23.31
2019-02-14T08:26:21.559Z,23.27
2019-02-14T08:27:22.468Z,23.29
2019-02-14T08:28:21.439Z,23.34
2019-02-14T08:29:21.685Z,23.39
2019-02-14T08:30:22.458Z,23.31
2019-02-14T08:31:21.702Z,23.40
2019-02-14T08:32:21.449Z,23.35
2019-02-14T08:33:21.403Z,23.43
2019-02-14T08:34:21.657Z,23.40
2019-02-14T08:35:21.392Z,23.40
2019-02-14T08:36:21.603Z,23.45
2019-02-14T08:37:21.409Z,23.35
2019-02-14T08:38:22.203Z,23.47
2019-02-14T08:39:21.599Z,23.35
2019-02-14T08:40:21.356Z,23.35
2019-02-14T08:41:21.345Z,23.39
2019-02-14T08:42:21.324Z,23.39
2019-02-14T08:43:21.602Z,23.46
2019-02-14T08:44:21.557Z,23.38
2019-02-14T08:45:21.588Z,23.43
2019-02-14T08:46:21.551Z,23.46
2019-02-14T08:47:22.436Z,23.43
2019-02-14T08:48:21.515Z,23.47
2019-02-14T08:49:21.314Z,23.43
2019-02-14T08:50:22.229Z,23.45
2019-02-14T08:51:21.541Z,23.43
2019-02-14T08:52:21.544Z,23.47
2019-02-14T08:53:22.436Z,23.45
2019-02-14T08:54:22.438Z,23.38
2019-02-14T08:55:22.436Z,23.43
2019-02-14T08:56:21.503Z,23.49
2019-02-14T08:57:21.472Z,23.46
2019-02-14T08:58:21.479Z,23.47
2019-02-14T08:59:21.237Z,23.40
2019-02-14T09:00:21.410Z,23.45
2019-02-14T09:01:21.443Z,23.45
2019-02-14T09:02:21.391Z,23.45
2019-02-14T09:03:21.414Z,23.52
2019-02-14T09:04:21.438Z,23.45
2019-02-14T09:05:21.422Z,23.42
2019-02-14T09:06:21.179Z,23.52
2019-02-14T09:07:21.499Z,23.45
2019-02-14T09:08:21.165Z,23.45
2019-02-14T09:09:21.374Z,23.50
2019-02-14T09:10:21.330Z,23.52
2019-02-14T09:11:21.379Z,23.45
2019-02-14T09:12:21.343Z,23.43
2019-02-14T09:13:21.130Z,23.46
2019-02-14T09:14:21.116Z,23.55
2019-02-14T09:15:21.342Z,23.49
2019-02-14T09:16:21.117Z,23.55
2019-02-14T09:17:21.292Z,23.45
2019-02-14T09:18:21.273Z,23.47
2019-02-14T09:19:21.037Z,23.46
2019-02-14T09:20:21.039Z,23.49
2019-02-14T09:21:21.242Z,23.46
2019-02-14T09:22:21.272Z,23.55
2019-02-14T09:23:21.016Z,23.49
2019-02-14T09:24:21.754Z,23.53
2019-02-14T09:25:21.278Z,23.53
2019-02-14T09:26:21.253Z,23.49
2019-02-14T09:27:21.254Z,23.61
2019-02-14T09:28:21.010Z,23.60
2019-02-14T09:29:21.209Z,23.62
2019-02-14T09:30:21.264Z,23.58
2019-02-14T09:31:21.174Z,23.65
2019-02-14T09:32:20.933Z,23.49
2019-02-14T09:33:21.245Z,23.60
2019-02-14T09:34:21.161Z,23.58
2019-02-14T09:35:21.169Z,23.61
2019-02-14T09:36:21.154Z,23.57
2019-02-14T09:37:20.929Z,23.64
2019-02-14T09:38:20.936Z,23.62
2019-02-14T09:39:20.915Z,23.58
2019-02-14T09:40:21.120Z,23.57
2019-02-14T09:41:21.141Z,23.61
2019-02-14T09:42:21.719Z,23.55
2019-02-14T09:43:29.420Z,23.58
2019-02-14T09:44:20.891Z,23.61
2019-02-14T09:45:21.080Z,23.62
2019-02-14T09:46:21.088Z,23.58
2019-02-14T09:47:21.039Z,23.58
2019-02-14T09:48:21.036Z,23.55
2019-02-14T09:49:21.031Z,23.62
2019-02-14T09:50:21.013Z,23.64
2019-02-14T09:51:21.058Z,23.64
2019-02-14T09:52:20.793Z,23.47
2019-02-14T09:53:20.797Z,23.58
2019-02-14T09:54:20.754Z,23.58
2019-02-14T09:55:21.006Z,23.55
2019-02-14T09:56:20.774Z,23.61
2019-02-14T09:57:20.728Z,23.61
2019-02-14T09:58:22.589Z,23.61
2019-02-14T09:59:20.991Z,23.61
2019-02-14T10:00:21.022Z,23.58
2019-02-14T10:01:20.985Z,23.61
2019-02-14T10:02:21.001Z,23.53
2019-02-14T10:03:20.912Z,23.67
2019-02-14T10:04:20.695Z,23.60
2019-02-14T10:05:20.962Z,23.55
2019-02-14T10:06:20.921Z,23.64
2019-02-14T10:07:20.651Z,23.53
2019-02-14T10:08:20.670Z,23.53
2019-02-14T10:09:20.908Z,23.53
2019-02-14T10:10:20.878Z,23.62
2019-02-14T10:11:20.674Z,23.64
2019-02-14T10:12:20.652Z,23.60
2019-02-14T10:13:20.612Z,23.60
2019-02-14T10:14:20.603Z,23.62
2019-02-14T10:15:20.824Z,23.58
2019-02-14T10:16:20.823Z,23.62
2019-02-14T10:17:22.281Z,23.65
2019-02-14T10:18:20.796Z,23.61
2019-02-14T10:19:20.831Z,23.67
2019-02-14T10:20:20.844Z,23.53
2019-02-14T10:21:20.799Z,23.58
2019-02-14T10:22:20.799Z,23.65
2019-02-14T10:23:20.810Z,23.65
2019-02-14T10:24:20.795Z,23.65
2019-02-14T10:25:20.524Z,23.61
2019-02-14T10:26:20.507Z,23.61
2019-02-14T10:27:20.783Z,23.60
2019-02-14T10:28:20.527Z,23.67
2019-02-14T10:29:20.523Z,23.70
2019-02-14T10:30:20.718Z,23.58
2019-02-14T10:31:20.706Z,23.68
2019-02-14T10:32:20.733Z,23.65
2019-02-14T10:33:20.692Z,23.70
2019-02-14T10:34:20.448Z,23.64
2019-02-14T10:35:20.694Z,23.65
2019-02-14T10:36:20.475Z,23.70
2019-02-14T10:37:20.418Z,23.70
2019-02-14T10:38:22.598Z,23.67
2019-02-14T10:39:20.673Z,23.65
2019-02-14T10:40:20.668Z,23.64
2019-02-14T10:41:20.426Z,23.68
2019-02-14T10:42:20.424Z,23.65
2019-02-14T10:43:20.380Z,23.64
2019-02-14T10:44:20.402Z,23.68
2019-02-14T10:45:20.620Z,23.72
2019-02-14T10:46:20.607Z,23.67
2019-02-14T10:47:20.388Z,23.67
2019-02-14T10:48:20.368Z,23.68
2019-02-14T10:49:20.616Z,23.64
2019-02-14T10:50:20.566Z,23.68
2019-02-14T10:51:20.536Z,23.70
2019-02-14T10:52:20.312Z,23.65
2019-02-14T10:53:20.550Z,23.68
2019-02-14T10:54:20.301Z,23.72
2019-02-14T10:55:20.556Z,23.62
2019-02-14T10:56:20.555Z,23.60
2019-02-14T10:57:20.555Z,23.67
2019-02-14T10:58:20.539Z,23.65
2019-02-14T10:59:20.244Z,23.68
2019-02-14T11:00:20.507Z,23.53
2019-02-14T11:01:20.450Z,23.68
2019-02-14T11:02:20.514Z,23.60
2019-02-14T11:03:20.244Z,23.60
2019-02-14T11:04:20.240Z,23.60
2019-02-14T11:05:20.452Z,23.67
2019-02-14T11:06:20.441Z,23.58
2019-02-14T11:07:20.457Z,23.60
2019-02-14T11:08:20.225Z,23.65
2019-02-14T11:09:20.398Z,23.67
2019-02-14T11:10:20.164Z,23.67
2019-02-14T11:11:20.382Z,23.61
2019-02-14T11:12:21.817Z,23.65
2019-02-14T11:13:20.138Z,23.57
2019-02-14T11:14:28.698Z,23.55
2019-02-14T11:15:20.174Z,23.57
2019-02-14T11:16:20.402Z,23.60
2019-02-14T11:17:20.152Z,23.62
2019-02-14T11:18:20.137Z,23.61
2019-02-14T11:19:20.118Z,23.53
2019-02-14T11:20:20.342Z,23.60
2019-02-14T11:21:20.295Z,23.53
2019-02-14T11:22:20.344Z,23.65
2019-02-14T11:23:20.298Z,23.61
2019-02-14T11:24:20.279Z,23.67
2019-02-14T11:25:20.082Z,23.64
2019-02-14T11:26:20.269Z,23.52
2019-02-14T11:27:20.066Z,23.55
2019-02-14T11:28:20.061Z,23.53
2019-02-14T11:29:20.040Z,23.55
2019-02-14T11:30:20.292Z,23.64
2019-02-14T11:31:20.215Z,23.61
2019-02-14T11:32:20.024Z,23.64
2019-02-14T11:33:20.225Z,23.64
2019-02-14T11:34:20.016Z,23.61
2019-02-14T11:35:20.238Z,23.57
2019-02-14T11:36:20.238Z,23.64
2019-02-14T11:37:19.967Z,23.62
2019-02-14T11:38:19.990Z,23.57
2019-02-14T11:39:19.954Z,23.60
2019-02-14T11:40:20.225Z,23.61
2019-02-14T11:41:19.962Z,23.60
2019-02-14T11:42:21.787Z,23.57
2019-02-14T11:43:20.130Z,23.58
2019-02-14T11:44:19.941Z,23.62
2019-02-14T11:45:19.924Z,23.55
2019-02-14T11:46:20.135Z,23.58
2019-02-14T11:47:20.150Z,23.60
2019-02-14T11:48:19.870Z,23.61
2019-02-14T11:49:19.907Z,23.57
2019-02-14T11:50:19.886Z,23.60
2019-02-14T11:51:20.095Z,23.61
2019-02-14T11:52:19.875Z,23.64
2019-02-14T11:53:19.874Z,23.57
2019-02-14T11:54:20.081Z,23.60
2019-02-14T11:55:19.903Z,23.70
2019-02-14T11:56:20.026Z,23.43
2019-02-14T11:57:20.046Z,23.61
2019-02-14T11:58:19.799Z,23.61
2019-02-14T11:59:20.026Z,23.62
2019-02-14T12:00:20.031Z,23.58
2019-02-14T12:01:20.066Z,23.60
2019-02-14T12:02:19.985Z,23.58
2019-02-14T12:03:20.010Z,23.60
2019-02-14T12:04:19.751Z,23.62
2019-02-14T12:05:19.781Z,23.61
2019-02-14T12:06:19.743Z,23.53
2019-02-14T12:07:19.986Z,23.62
2019-02-14T12:08:19.996Z,23.57
2019-02-14T12:09:19.970Z,23.52
2019-02-14T12:10:19.957Z,23.60
2019-02-14T12:11:19.741Z,23.61
2019-02-14T12:12:20.826Z,23.61
2019-02-14T12:13:19.674Z,23.58
2019-02-14T12:14:19.894Z,23.62
2019-02-14T12:15:19.942Z,23.60
2019-02-14T12:16:19.878Z,23.57
2019-02-14T12:17:19.866Z,23.50
2019-02-14T12:18:19.865Z,23.58
2019-02-14T12:19:19.643Z,23.60
2019-02-14T12:20:19.650Z,23.61
2019-02-14T12:21:19.607Z,23.61
2019-02-14T12:22:19.633Z,23.55
2019-02-14T12:23:19.613Z,23.57
2019-02-14T12:24:19.874Z,23.58
2019-02-14T12:25:19.801Z,23.55
2019-02-14T12:26:19.609Z,23.52
2019-02-14T12:27:19.817Z,23.55
2019-02-14T12:28:19.808Z,23.57
2019-02-14T12:29:19.567Z,23.50
2019-02-14T12:30:19.800Z,23.57
2019-02-14T12:31:19.539Z,23.55
2019-02-14T12:32:19.572Z,23.53
2019-02-14T12:33:19.534Z,23.49
2019-02-14T12:34:19.521Z,23.50
2019-02-14T12:35:19.552Z,23.57
2019-02-14T12:36:19.729Z,23.55
2019-02-14T12:37:19.523Z,23.57
2019-02-14T12:38:19.751Z,23.58
2019-02-14T12:39:19.760Z,23.52
2019-02-14T12:40:19.507Z,23.55
2019-02-14T12:41:19.708Z,23.53
2019-02-14T12:42:19.466Z,23.52
2019-02-14T12:43:19.489Z,23.55
2019-02-14T12:44:19.441Z,23.55
2019-02-14T12:45:21.592Z,23.52
2019-02-14T12:46:19.452Z,23.53
2019-02-14T12:47:19.679Z,23.52
2019-02-14T12:48:19.655Z,23.50
2019-02-14T12:49:19.618Z,23.53
2019-02-14T12:50:19.424Z,23.50
2019-02-14T12:51:19.431Z,23.50
2019-02-14T12:52:19.626Z,23.53
2019-02-14T12:53:19.403Z,23.52
2019-02-14T12:54:19.635Z,23.58
2019-02-14T12:55:19.608Z,23.53
2019-02-14T12:56:19.565Z,23.53
2019-02-14T12:57:19.371Z,23.58
2019-02-14T12:58:19.579Z,23.52
2019-02-14T12:59:19.317Z,23.50
2019-02-14T13:00:19.541Z,23.55
2019-02-14T13:01:19.522Z,23.60
2019-02-14T13:02:19.339Z,23.55
2019-02-14T13:03:19.559Z,23.53
2019-02-14T13:04:19.284Z,23.55
2019-02-14T13:05:19.321Z,23.52
2019-02-14T13:06:19.301Z,23.57
2019-02-14T13:07:20.427Z,23.53
2019-02-14T13:08:19.293Z,23.52
2019-02-14T13:09:20.125Z,23.52
2019-02-14T13:10:19.276Z,23.52
2019-02-14T13:11:19.508Z,23.52
2019-02-14T13:12:19.219Z,23.55
2019-02-14T13:13:19.222Z,23.55
2019-02-14T13:14:19.464Z,23.53
2019-02-14T13:15:19.453Z,23.53
2019-02-14T13:16:19.228Z,23.52
2019-02-14T13:17:19.178Z,23.53
2019-02-14T13:18:19.167Z,23.53
2019-02-14T13:19:19.405Z,23.55
2019-02-14T13:20:19.395Z,23.53
2019-02-14T13:21:19.393Z,23.46
2019-02-14T13:22:19.367Z,23.47
2019-02-14T13:23:19.142Z,23.55
2019-02-14T13:24:19.379Z,23.45
2019-02-14T13:25:19.118Z,23.53
2019-02-14T13:26:19.402Z,23.55
2019-02-14T13:27:19.341Z,23.52
2019-02-14T13:28:19.100Z,23.55
2019-02-14T13:29:19.094Z,23.50
2019-02-14T13:30:19.331Z,23.45
2019-02-14T13:31:19.082Z,23.55
2019-02-14T13:32:19.103Z,23.53
2019-02-14T13:33:19.353Z,23.50
2019-02-14T13:34:19.052Z,23.52
2019-02-14T13:35:19.284Z,23.50
2019-02-14T13:36:19.067Z,23.52
2019-02-14T13:37:19.283Z,23.55
2019-02-14T13:38:19.065Z,23.52
2019-02-14T13:39:19.019Z,23.58
2019-02-14T13:40:19.257Z,23.45
2019-02-14T13:41:19.051Z,23.50
2019-02-14T13:42:19.242Z,23.53
2019-02-14T13:43:19.024Z,23.52
2019-02-14T13:44:19.192Z,23.53
2019-02-14T13:45:18.996Z,23.49
2019-02-14T13:46:18.958Z,23.49
2019-02-14T13:47:18.954Z,23.46
2019-02-14T13:48:18.942Z,23.43
2019-02-14T13:49:18.941Z,23.43
2019-02-14T13:50:18.965Z,23.49
2019-02-14T13:51:18.919Z,23.57
2019-02-14T13:52:19.128Z,23.45
2019-02-14T13:53:18.950Z,23.40
2019-02-14T13:54:19.188Z,23.47
2019-02-14T13:55:18.891Z,23.46
2019-02-14T13:56:19.144Z,23.45
2019-02-14T13:57:19.154Z,23.46
2019-02-14T13:58:18.871Z,23.49
2019-02-14T13:59:18.854Z,23.46
2019-02-14T14:00:18.845Z,23.45
2019-02-14T14:01:19.067Z,23.46
2019-02-14T14:02:19.061Z,23.42
2019-02-14T14:03:18.832Z,23.47
2019-02-14T14:04:19.034Z,23.42
2019-02-14T14:05:19.068Z,23.40
2019-02-14T14:06:19.079Z,23.45
2019-02-14T14:07:19.050Z,23.50
2019-02-14T14:08:18.998Z,23.45
2019-02-14T14:09:18.817Z,23.47
2019-02-14T14:10:18.776Z,23.45
2019-02-14T14:11:18.996Z,23.42
2019-02-14T14:12:18.807Z,23.45
2019-02-14T14:13:19.004Z,23.47
2019-02-14T14:14:18.965Z,23.40
2019-02-14T14:15:19.010Z,23.46
2019-02-14T14:16:18.942Z,23.43
2019-02-14T14:17:18.992Z,23.46
2019-02-14T14:18:18.749Z,23.40
2019-02-14T14:19:18.989Z,23.43
2019-02-14T14:20:18.741Z,23.47
2019-02-14T14:21:18.729Z,23.39
2019-02-14T14:22:18.962Z,23.45
2019-02-14T14:23:19.911Z,23.45
2019-02-14T14:24:18.698Z,23.42
2019-02-14T14:25:18.920Z,23.46
2019-02-14T14:26:18.898Z,23.43
2019-02-14T14:27:18.646Z,23.42
2019-02-14T14:28:18.629Z,23.46
2019-02-14T14:29:18.650Z,23.46
2019-02-14T14:30:18.626Z,23.39
2019-02-14T14:31:18.610Z,23.42
2019-02-14T14:32:18.843Z,23.45
2019-02-14T14:33:18.592Z,23.46
2019-02-14T14:34:18.825Z,23.43
2019-02-14T14:35:18.850Z,23.47
2019-02-14T14:36:18.568Z,23.42
2019-02-14T14:37:18.562Z,23.42
2019-02-14T14:38:18.825Z,23.43
2019-02-14T14:39:18.827Z,23.40
2019-02-14T14:40:20.346Z,23.45
2019-02-14T14:41:18.749Z,23.39
2019-02-14T14:42:18.803Z,23.40
2019-02-14T14:43:18.581Z,23.45
2019-02-14T14:44:18.777Z,23.40
2019-02-14T14:45:18.506Z,23.35
2019-02-14T14:46:18.535Z,23.39
2019-02-14T14:47:18.705Z,23.38
2019-02-14T14:48:19.840Z,23.42
2019-02-14T14:49:18.694Z,23.38
2019-02-14T14:50:18.720Z,23.38
2019-02-14T14:51:18.697Z,23.42
2019-02-14T14:52:18.666Z,23.39
2019-02-14T14:53:18.714Z,23.45
2019-02-14T14:54:18.470Z,23.43
2019-02-14T14:55:18.452Z,23.46
2019-02-14T14:56:18.629Z,23.43
2019-02-14T14:57:18.692Z,23.35
2019-02-14T14:58:18.402Z,23.39
2019-02-14T14:59:18.640Z,23.38
2019-02-14T15:00:18.603Z,23.45
2019-02-14T15:01:18.375Z,23.42
2019-02-14T15:02:18.628Z,23.34
2019-02-14T15:03:18.358Z,23.42
2019-02-14T15:04:18.571Z,23.47
2019-02-14T15:05:18.349Z,23.45
2019-02-14T15:06:18.377Z,23.39
2019-02-14T15:07:18.579Z,23.43
2019-02-14T15:08:18.353Z,23.43
2019-02-14T15:09:18.528Z,23.40
2019-02-14T15:10:18.340Z,23.39
2019-02-14T15:11:18.547Z,23.49
2019-02-14T15:12:18.553Z,23.39
2019-02-14T15:13:18.320Z,23.42
2019-02-14T15:14:18.265Z,23.35